sensor_id;sensor_type;location;lat;lon;timestamp;P1;durP1;ratioP1;P2;durP2;ratioP2
23001;SDS011;11667;51.706;4.856;2023-03-16T00:01:39;11.83;;;7.08;;
23001;SDS011;11667;51.706;4.856;2023-03-16T00:04:09;11.95;;;6.58;;
23001;SDS011;11667;51.706;4.856;2023-03-16T00:06:38;9.55;;;6.45;;
23001;SDS011;11667;51.706;4.856;2023-03-16T00:09:08;14.33;;;7.47;;
23001;SDS011;11667;51.706;4.856;2023-03-16T00:11:37;12.23;;;7.22;;
23001;SDS011;11667;51.706;4.856;2023-03-16T00:14:07;10.60;;;7.10;;
23001;SDS011;11667;51.706;4.856;2023-03-16T00:16:36;14.05;;;6.92;;
23001;SDS011;11667;51.706;4.856;2023-03-16T00:19:06;12.25;;;7.17;;
23001;SDS011;11667;51.706;4.856;2023-03-16T00:21:36;16.65;;;7.67;;
23001;SDS011;11667;51.706;4.856;2023-03-16T00:24:05;15.60;;;7.45;;
23001;SDS011;11667;51.706;4.856;2023-03-16T00:26:35;14.85;;;7.37;;
23001;SDS011;11667;51.706;4.856;2023-03-16T00:29:05;11.18;;;7.15;;
23001;SDS011;11667;51.706;4.856;2023-03-16T00:31:34;15.30;;;8.28;;
23001;SDS011;11667;51.706;4.856;2023-03-16T00:34:03;12.65;;;7.58;;
23001;SDS011;11667;51.706;4.856;2023-03-16T00:36:33;19.35;;;7.50;;
23001;SDS011;11667;51.706;4.856;2023-03-16T00:39:04;12.88;;;7.53;;
23001;SDS011;11667;51.706;4.856;2023-03-16T00:41:34;14.58;;;7.37;;
23001;SDS011;11667;51.706;4.856;2023-03-16T00:44:04;13.28;;;7.60;;
23001;SDS011;11667;51.706;4.856;2023-03-16T00:46:35;13.85;;;7.75;;
23001;SDS011;11667;51.706;4.856;2023-03-16T00:49:05;14.98;;;7.87;;
23001;SDS011;11667;51.706;4.856;2023-03-16T00:51:34;12.53;;;7.58;;
23001;SDS011;11667;51.706;4.856;2023-03-16T00:54:03;14.40;;;7.85;;
23001;SDS011;11667;51.706;4.856;2023-03-16T00:56:33;12.90;;;7.40;;
23001;SDS011;11667;51.706;4.856;2023-03-16T00:59:03;13.22;;;7.80;;
23001;SDS011;11667;51.706;4.856;2023-03-16T01:01:32;12.65;;;7.30;;
23001;SDS011;11667;51.706;4.856;2023-03-16T01:04:02;14.35;;;8.60;;
23001;SDS011;11667;51.706;4.856;2023-03-16T01:06:32;12.30;;;7.58;;
23001;SDS011;11667;51.706;4.856;2023-03-16T01:09:04;14.68;;;7.83;;
23001;SDS011;11667;51.706;4.856;2023-03-16T01:11:33;12.35;;;7.47;;
23001;SDS011;11667;51.706;4.856;2023-03-16T01:14:04;13.58;;;7.62;;
23001;SDS011;11667;51.706;4.856;2023-03-16T01:16:33;12.53;;;7.65;;
23001;SDS011;11667;51.706;4.856;2023-03-16T01:19:03;11.57;;;7.22;;
23001;SDS011;11667;51.706;4.856;2023-03-16T01:21:32;13.78;;;7.20;;
23001;SDS011;11667;51.706;4.856;2023-03-16T01:24:03;13.78;;;7.08;;
23001;SDS011;11667;51.706;4.856;2023-03-16T01:26:33;16.12;;;7.33;;
23001;SDS011;11667;51.706;4.856;2023-03-16T01:29:02;14.07;;;7.42;;
23001;SDS011;11667;51.706;4.856;2023-03-16T01:31:32;12.13;;;7.50;;
23001;SDS011;11667;51.706;4.856;2023-03-16T01:34:01;11.95;;;6.65;;
23001;SDS011;11667;51.706;4.856;2023-03-16T01:36:31;15.38;;;6.95;;
23001;SDS011;11667;51.706;4.856;2023-03-16T01:39:02;10.45;;;6.33;;
23001;SDS011;11667;51.706;4.856;2023-03-16T01:41:38;14.25;;;7.47;;
23001;SDS011;11667;51.706;4.856;2023-03-16T01:44:17;13.30;;;6.87;;
23001;SDS011;11667;51.706;4.856;2023-03-16T01:46:41;14.10;;;6.62;;
23001;SDS011;11667;51.706;4.856;2023-03-16T01:49:18;11.75;;;6.28;;
23001;SDS011;11667;51.706;4.856;2023-03-16T01:52:02;13.20;;;6.40;;
23001;SDS011;11667;51.706;4.856;2023-03-16T01:54:35;12.47;;;6.28;;
23001;SDS011;11667;51.706;4.856;2023-03-16T01:57:11;11.00;;;6.10;;
23001;SDS011;11667;51.706;4.856;2023-03-16T02:02:26;12.60;;;6.00;;
23001;SDS011;11667;51.706;4.856;2023-03-16T02:05:09;11.97;;;5.95;;
23001;SDS011;11667;51.706;4.856;2023-03-16T02:07:48;11.97;;;6.22;;
23001;SDS011;11667;51.706;4.856;2023-03-16T02:10:19;12.40;;;6.58;;
23001;SDS011;11667;51.706;4.856;2023-03-16T02:12:49;11.90;;;6.50;;
23001;SDS011;11667;51.706;4.856;2023-03-16T02:15:19;13.98;;;6.47;;
23001;SDS011;11667;51.706;4.856;2023-03-16T02:17:49;11.53;;;6.20;;
23001;SDS011;11667;51.706;4.856;2023-03-16T02:23:17;13.20;;;6.35;;
23001;SDS011;11667;51.706;4.856;2023-03-16T02:26:06;16.20;;;6.83;;
23001;SDS011;11667;51.706;4.856;2023-03-16T02:31:59;13.10;;;6.62;;
23001;SDS011;11667;51.706;4.856;2023-03-16T02:34:29;11.45;;;6.35;;
23001;SDS011;11667;51.706;4.856;2023-03-16T02:36:59;13.98;;;6.47;;
23001;SDS011;11667;51.706;4.856;2023-03-16T02:39:29;13.93;;;6.97;;
23001;SDS011;11667;51.706;4.856;2023-03-16T02:41:59;11.73;;;6.35;;
23001;SDS011;11667;51.706;4.856;2023-03-16T02:44:30;11.33;;;6.45;;
23001;SDS011;11667;51.706;4.856;2023-03-16T02:47:03;10.75;;;6.58;;
23001;SDS011;11667;51.706;4.856;2023-03-16T02:49:38;13.53;;;6.45;;
23001;SDS011;11667;51.706;4.856;2023-03-16T02:52:09;11.93;;;6.55;;
23001;SDS011;11667;51.706;4.856;2023-03-16T02:54:39;12.80;;;6.90;;
23001;SDS011;11667;51.706;4.856;2023-03-16T02:57:09;13.30;;;6.37;;
23001;SDS011;11667;51.706;4.856;2023-03-16T02:59:38;11.22;;;6.47;;
23001;SDS011;11667;51.706;4.856;2023-03-16T03:02:08;14.53;;;6.28;;
23001;SDS011;11667;51.706;4.856;2023-03-16T03:04:38;13.05;;;6.90;;
23001;SDS011;11667;51.706;4.856;2023-03-16T03:07:08;12.75;;;6.60;;
23001;SDS011;11667;51.706;4.856;2023-03-16T03:09:39;10.60;;;6.15;;
23001;SDS011;11667;51.706;4.856;2023-03-16T03:12:09;9.40;;;6.00;;
23001;SDS011;11667;51.706;4.856;2023-03-16T03:14:39;13.08;;;6.22;;
23001;SDS011;11667;51.706;4.856;2023-03-16T03:17:09;11.50;;;6.17;;
23001;SDS011;11667;51.706;4.856;2023-03-16T03:19:40;11.43;;;5.72;;
23001;SDS011;11667;51.706;4.856;2023-03-16T03:22:09;12.23;;;6.10;;
23001;SDS011;11667;51.706;4.856;2023-03-16T03:24:39;14.50;;;6.60;;
23001;SDS011;11667;51.706;4.856;2023-03-16T03:27:08;11.78;;;6.35;;
23001;SDS011;11667;51.706;4.856;2023-03-16T03:29:38;8.33;;;5.53;;
23001;SDS011;11667;51.706;4.856;2023-03-16T03:32:07;12.80;;;6.47;;
23001;SDS011;11667;51.706;4.856;2023-03-16T03:34:37;12.15;;;5.92;;
23001;SDS011;11667;51.706;4.856;2023-03-16T03:37:09;12.40;;;6.43;;
23001;SDS011;11667;51.706;4.856;2023-03-16T03:39:39;11.43;;;5.75;;
23001;SDS011;11667;51.706;4.856;2023-03-16T03:42:10;11.68;;;5.60;;
23001;SDS011;11667;51.706;4.856;2023-03-16T03:44:40;11.70;;;5.70;;
23001;SDS011;11667;51.706;4.856;2023-03-16T03:47:09;9.30;;;5.30;;
23001;SDS011;11667;51.706;4.856;2023-03-16T03:49:39;9.48;;;5.30;;
23001;SDS011;11667;51.706;4.856;2023-03-16T03:52:09;12.55;;;5.72;;
23001;SDS011;11667;51.706;4.856;2023-03-16T03:54:38;10.98;;;5.83;;
23001;SDS011;11667;51.706;4.856;2023-03-16T03:57:15;11.35;;;5.42;;
23001;SDS011;11667;51.706;4.856;2023-03-16T03:59:46;11.08;;;5.65;;
23001;SDS011;11667;51.706;4.856;2023-03-16T04:02:20;12.00;;;5.30;;
23001;SDS011;11667;51.706;4.856;2023-03-16T04:04:51;10.32;;;5.70;;
23001;SDS011;11667;51.706;4.856;2023-03-16T04:07:21;12.80;;;5.70;;
23001;SDS011;11667;51.706;4.856;2023-03-16T04:09:52;11.83;;;5.12;;
23001;SDS011;11667;51.706;4.856;2023-03-16T04:12:23;12.05;;;5.60;;
23001;SDS011;11667;51.706;4.856;2023-03-16T04:14:53;11.43;;;5.95;;
23001;SDS011;11667;51.706;4.856;2023-03-16T04:17:23;12.35;;;5.35;;
23001;SDS011;11667;51.706;4.856;2023-03-16T04:19:54;12.95;;;5.83;;
23001;SDS011;11667;51.706;4.856;2023-03-16T04:22:24;9.85;;;5.45;;
23001;SDS011;11667;51.706;4.856;2023-03-16T04:24:53;10.93;;;5.42;;
23001;SDS011;11667;51.706;4.856;2023-03-16T04:27:23;11.20;;;5.72;;
23001;SDS011;11667;51.706;4.856;2023-03-16T04:29:53;7.72;;;5.15;;
23001;SDS011;11667;51.706;4.856;2023-03-16T04:32:24;10.40;;;5.30;;
23001;SDS011;11667;51.706;4.856;2023-03-16T04:34:54;8.93;;;5.22;;
23001;SDS011;11667;51.706;4.856;2023-03-16T04:37:25;9.78;;;5.10;;
23001;SDS011;11667;51.706;4.856;2023-03-16T04:39:54;9.83;;;5.37;;
23001;SDS011;11667;51.706;4.856;2023-03-16T04:42:24;10.70;;;5.53;;
23001;SDS011;11667;51.706;4.856;2023-03-16T04:44:53;13.08;;;5.72;;
23001;SDS011;11667;51.706;4.856;2023-03-16T04:47:22;10.15;;;5.20;;
23001;SDS011;11667;51.706;4.856;2023-03-16T04:49:52;10.00;;;5.28;;
23001;SDS011;11667;51.706;4.856;2023-03-16T04:52:22;17.60;;;5.83;;
23001;SDS011;11667;51.706;4.856;2023-03-16T04:54:52;11.18;;;5.72;;
23001;SDS011;11667;51.706;4.856;2023-03-16T04:57:23;12.18;;;6.08;;
23001;SDS011;11667;51.706;4.856;2023-03-16T04:59:53;11.12;;;6.20;;
23001;SDS011;11667;51.706;4.856;2023-03-16T05:02:24;12.43;;;6.25;;
23001;SDS011;11667;51.706;4.856;2023-03-16T05:04:54;11.35;;;6.10;;
23001;SDS011;11667;51.706;4.856;2023-03-16T05:07:23;15.53;;;5.97;;
23001;SDS011;11667;51.706;4.856;2023-03-16T05:09:54;14.05;;;6.80;;
23001;SDS011;11667;51.706;4.856;2023-03-16T05:12:23;12.43;;;6.12;;
23001;SDS011;11667;51.706;4.856;2023-03-16T05:14:54;11.10;;;6.00;;
23001;SDS011;11667;51.706;4.856;2023-03-16T05:17:31;11.80;;;5.80;;
23001;SDS011;11667;51.706;4.856;2023-03-16T05:20:01;10.98;;;6.05;;
23001;SDS011;11667;51.706;4.856;2023-03-16T05:22:36;14.68;;;6.05;;
23001;SDS011;11667;51.706;4.856;2023-03-16T05:25:11;11.97;;;6.20;;
23001;SDS011;11667;51.706;4.856;2023-03-16T05:27:44;14.75;;;6.25;;
23001;SDS011;11667;51.706;4.856;2023-03-16T05:32:45;14.70;;;6.50;;
23001;SDS011;11667;51.706;4.856;2023-03-16T05:35:15;14.50;;;7.03;;
23001;SDS011;11667;51.706;4.856;2023-03-16T05:37:45;12.60;;;6.90;;
23001;SDS011;11667;51.706;4.856;2023-03-16T05:40:16;14.03;;;7.05;;
23001;SDS011;11667;51.706;4.856;2023-03-16T05:42:48;15.35;;;7.50;;
23001;SDS011;11667;51.706;4.856;2023-03-16T05:45:21;14.58;;;7.03;;
23001;SDS011;11667;51.706;4.856;2023-03-16T05:48:04;12.75;;;6.65;;
23001;SDS011;11667;51.706;4.856;2023-03-16T05:50:35;14.50;;;7.25;;
23001;SDS011;11667;51.706;4.856;2023-03-16T05:53:06;12.07;;;6.40;;
23001;SDS011;11667;51.706;4.856;2023-03-16T05:55:36;13.30;;;7.22;;
23001;SDS011;11667;51.706;4.856;2023-03-16T05:58:07;14.73;;;7.30;;
23001;SDS011;11667;51.706;4.856;2023-03-16T06:00:39;14.90;;;7.00;;
23001;SDS011;11667;51.706;4.856;2023-03-16T06:03:11;13.70;;;6.92;;
23001;SDS011;11667;51.706;4.856;2023-03-16T06:05:40;14.15;;;7.25;;
23001;SDS011;11667;51.706;4.856;2023-03-16T06:08:10;12.45;;;7.30;;
23001;SDS011;11667;51.706;4.856;2023-03-16T06:10:41;15.10;;;7.42;;
23001;SDS011;11667;51.706;4.856;2023-03-16T06:13:10;16.90;;;6.87;;
23001;SDS011;11667;51.706;4.856;2023-03-16T06:15:40;13.43;;;6.95;;
23001;SDS011;11667;51.706;4.856;2023-03-16T06:18:11;16.23;;;7.28;;
23001;SDS011;11667;51.706;4.856;2023-03-16T06:20:41;14.68;;;7.12;;
23001;SDS011;11667;51.706;4.856;2023-03-16T06:23:11;13.55;;;6.08;;
23001;SDS011;11667;51.706;4.856;2023-03-16T06:25:40;12.63;;;6.58;;
23001;SDS011;11667;51.706;4.856;2023-03-16T06:28:10;11.28;;;6.45;;
23001;SDS011;11667;51.706;4.856;2023-03-16T06:30:40;12.15;;;6.30;;
23001;SDS011;11667;51.706;4.856;2023-03-16T06:33:09;12.50;;;6.47;;
23001;SDS011;11667;51.706;4.856;2023-03-16T06:35:39;14.58;;;6.80;;
23001;SDS011;11667;51.706;4.856;2023-03-16T06:38:10;13.00;;;6.50;;
23001;SDS011;11667;51.706;4.856;2023-03-16T06:40:50;13.95;;;6.50;;
23001;SDS011;11667;51.706;4.856;2023-03-16T06:43:20;16.67;;;6.72;;
23001;SDS011;11667;51.706;4.856;2023-03-16T06:45:50;11.95;;;6.65;;
23001;SDS011;11667;51.706;4.856;2023-03-16T06:48:21;12.00;;;6.42;;
23001;SDS011;11667;51.706;4.856;2023-03-16T06:50:50;12.60;;;6.25;;
23001;SDS011;11667;51.706;4.856;2023-03-16T06:53:21;12.00;;;6.25;;
23001;SDS011;11667;51.706;4.856;2023-03-16T06:55:51;15.83;;;6.90;;
23001;SDS011;11667;51.706;4.856;2023-03-16T06:58:21;9.53;;;5.67;;
23001;SDS011;11667;51.706;4.856;2023-03-16T07:00:50;16.27;;;7.85;;
23001;SDS011;11667;51.706;4.856;2023-03-16T07:03:20;12.80;;;5.70;;
23001;SDS011;11667;51.706;4.856;2023-03-16T07:05:51;12.45;;;5.87;;
23001;SDS011;11667;51.706;4.856;2023-03-16T07:08:21;10.75;;;5.80;;
23001;SDS011;11667;51.706;4.856;2023-03-16T07:10:51;13.40;;;5.80;;
23001;SDS011;11667;51.706;4.856;2023-03-16T07:13:21;14.28;;;5.90;;
23001;SDS011;11667;51.706;4.856;2023-03-16T07:15:50;9.03;;;5.40;;
23001;SDS011;11667;51.706;4.856;2023-03-16T07:18:20;9.10;;;4.97;;
23001;SDS011;11667;51.706;4.856;2023-03-16T07:20:53;13.45;;;5.25;;
23001;SDS011;11667;51.706;4.856;2023-03-16T07:23:24;10.53;;;5.25;;
23001;SDS011;11667;51.706;4.856;2023-03-16T07:25:55;11.10;;;5.70;;
23001;SDS011;11667;51.706;4.856;2023-03-16T07:28:25;15.35;;;5.60;;
23001;SDS011;11667;51.706;4.856;2023-03-16T07:30:56;11.28;;;4.87;;
23001;SDS011;11667;51.706;4.856;2023-03-16T07:33:28;12.93;;;4.83;;
23001;SDS011;11667;51.706;4.856;2023-03-16T07:36:00;8.25;;;5.15;;
23001;SDS011;11667;51.706;4.856;2023-03-16T07:38:32;10.48;;;4.70;;
23001;SDS011;11667;51.706;4.856;2023-03-16T07:41:02;11.80;;;5.25;;
23001;SDS011;11667;51.706;4.856;2023-03-16T07:43:33;11.05;;;5.20;;
23001;SDS011;11667;51.706;4.856;2023-03-16T07:46:02;9.80;;;5.47;;
23001;SDS011;11667;51.706;4.856;2023-03-16T07:48:34;13.10;;;5.28;;
23001;SDS011;11667;51.706;4.856;2023-03-16T07:51:04;11.48;;;5.03;;
23001;SDS011;11667;51.706;4.856;2023-03-16T07:53:33;9.85;;;4.85;;
23001;SDS011;11667;51.706;4.856;2023-03-16T07:56:05;12.93;;;5.00;;
23001;SDS011;11667;51.706;4.856;2023-03-16T07:58:36;12.10;;;4.83;;
23001;SDS011;11667;51.706;4.856;2023-03-16T08:01:06;8.63;;;4.10;;
23001;SDS011;11667;51.706;4.856;2023-03-16T08:03:38;9.48;;;4.30;;
23001;SDS011;11667;51.706;4.856;2023-03-16T08:06:07;8.20;;;4.15;;
23001;SDS011;11667;51.706;4.856;2023-03-16T08:08:38;10.32;;;4.40;;
23001;SDS011;11667;51.706;4.856;2023-03-16T08:11:09;13.13;;;4.33;;
23001;SDS011;11667;51.706;4.856;2023-03-16T08:13:41;8.43;;;3.92;;
23001;SDS011;11667;51.706;4.856;2023-03-16T08:16:11;9.65;;;4.03;;
23001;SDS011;11667;51.706;4.856;2023-03-16T08:18:42;10.50;;;3.60;;
23001;SDS011;11667;51.706;4.856;2023-03-16T08:21:13;11.83;;;3.83;;
23001;SDS011;11667;51.706;4.856;2023-03-16T08:23:44;8.63;;;3.80;;
23001;SDS011;11667;51.706;4.856;2023-03-16T08:28:46;6.00;;;3.55;;
23001;SDS011;11667;51.706;4.856;2023-03-16T08:31:18;9.23;;;3.40;;
23001;SDS011;11667;51.706;4.856;2023-03-16T08:33:49;8.63;;;3.25;;
23001;SDS011;11667;51.706;4.856;2023-03-16T08:36:20;6.17;;;3.12;;
23001;SDS011;11667;51.706;4.856;2023-03-16T08:38:51;6.70;;;3.52;;
23001;SDS011;11667;51.706;4.856;2023-03-16T08:41:23;5.60;;;3.20;;
23001;SDS011;11667;51.706;4.856;2023-03-16T08:43:52;4.87;;;3.00;;
23001;SDS011;11667;51.706;4.856;2023-03-16T08:46:22;7.15;;;3.27;;
23001;SDS011;11667;51.706;4.856;2023-03-16T08:48:54;6.17;;;3.37;;
23001;SDS011;11667;51.706;4.856;2023-03-16T08:51:24;5.00;;;3.22;;
23001;SDS011;11667;51.706;4.856;2023-03-16T08:53:54;6.85;;;3.17;;
23001;SDS011;11667;51.706;4.856;2023-03-16T08:56:23;7.83;;;3.27;;
23001;SDS011;11667;51.706;4.856;2023-03-16T08:58:52;6.67;;;2.98;;
23001;SDS011;11667;51.706;4.856;2023-03-16T09:01:22;5.53;;;3.00;;
23001;SDS011;11667;51.706;4.856;2023-03-16T09:03:52;5.65;;;2.87;;
23001;SDS011;11667;51.706;4.856;2023-03-16T09:06:21;6.80;;;3.27;;
23001;SDS011;11667;51.706;4.856;2023-03-16T09:08:51;6.80;;;2.65;;
23001;SDS011;11667;51.706;4.856;2023-03-16T09:11:22;5.50;;;2.65;;
23001;SDS011;11667;51.706;4.856;2023-03-16T09:13:53;6.33;;;2.67;;
23001;SDS011;11667;51.706;4.856;2023-03-16T09:16:22;6.15;;;2.70;;
23001;SDS011;11667;51.706;4.856;2023-03-16T09:18:52;6.50;;;2.65;;
23001;SDS011;11667;51.706;4.856;2023-03-16T09:21:22;5.37;;;2.58;;
23001;SDS011;11667;51.706;4.856;2023-03-16T09:23:52;6.53;;;3.02;;
23001;SDS011;11667;51.706;4.856;2023-03-16T09:26:22;7.40;;;2.52;;
23001;SDS011;11667;51.706;4.856;2023-03-16T09:28:52;5.40;;;2.40;;
23001;SDS011;11667;51.706;4.856;2023-03-16T09:31:21;5.15;;;2.37;;
23001;SDS011;11667;51.706;4.856;2023-03-16T09:33:51;7.40;;;2.45;;
23001;SDS011;11667;51.706;4.856;2023-03-16T09:36:21;8.95;;;2.33;;
23001;SDS011;11667;51.706;4.856;2023-03-16T09:38:51;3.98;;;2.15;;
23001;SDS011;11667;51.706;4.856;2023-03-16T09:41:34;3.58;;;2.22;;
23001;SDS011;11667;51.706;4.856;2023-03-16T09:44:13;6.08;;;2.50;;
23001;SDS011;11667;51.706;4.856;2023-03-16T09:46:58;3.85;;;2.10;;
23001;SDS011;11667;51.706;4.856;2023-03-16T09:49:34;3.40;;;2.00;;
23001;SDS011;11667;51.706;4.856;2023-03-16T09:57:56;4.78;;;2.00;;
23001;SDS011;11667;51.706;4.856;2023-03-16T10:00:33;4.78;;;2.02;;
23001;SDS011;11667;51.706;4.856;2023-03-16T10:05:37;5.28;;;2.37;;
23001;SDS011;11667;51.706;4.856;2023-03-16T10:08:11;6.67;;;2.00;;
23001;SDS011;11667;51.706;4.856;2023-03-16T10:16:40;3.75;;;2.00;;
23001;SDS011;11667;51.706;4.856;2023-03-16T10:19:21;5.83;;;2.00;;
23001;SDS011;11667;51.706;4.856;2023-03-16T10:21:53;4.92;;;1.90;;
23001;SDS011;11667;51.706;4.856;2023-03-16T10:24:35;5.03;;;2.10;;
23001;SDS011;11667;51.706;4.856;2023-03-16T10:27:02;4.70;;;1.90;;
23001;SDS011;11667;51.706;4.856;2023-03-16T10:29:34;5.22;;;2.15;;
23001;SDS011;11667;51.706;4.856;2023-03-16T10:32:14;5.55;;;2.02;;
23001;SDS011;11667;51.706;4.856;2023-03-16T10:34:53;5.37;;;2.02;;
23001;SDS011;11667;51.706;4.856;2023-03-16T10:37:24;4.28;;;2.00;;
23001;SDS011;11667;51.706;4.856;2023-03-16T10:39:54;6.47;;;2.15;;
23001;SDS011;11667;51.706;4.856;2023-03-16T10:42:24;5.12;;;1.90;;
23001;SDS011;11667;51.706;4.856;2023-03-16T10:44:57;4.47;;;2.10;;
23001;SDS011;11667;51.706;4.856;2023-03-16T10:47:30;4.65;;;2.00;;
23001;SDS011;11667;51.706;4.856;2023-03-16T10:50:10;4.17;;;1.92;;
23001;SDS011;11667;51.706;4.856;2023-03-16T10:52:44;5.12;;;1.90;;
23001;SDS011;11667;51.706;4.856;2023-03-16T10:55:15;4.20;;;1.92;;
23001;SDS011;11667;51.706;4.856;2023-03-16T10:57:53;5.78;;;2.12;;
23001;SDS011;11667;51.706;4.856;2023-03-16T11:00:27;5.97;;;2.30;;
23001;SDS011;11667;51.706;4.856;2023-03-16T11:03:00;4.47;;;2.02;;
23001;SDS011;11667;51.706;4.856;2023-03-16T11:05:32;4.72;;;1.85;;
23001;SDS011;11667;51.706;4.856;2023-03-16T11:08:15;3.08;;;1.62;;
23001;SDS011;11667;51.706;4.856;2023-03-16T11:10:55;3.77;;;1.70;;
23001;SDS011;11667;51.706;4.856;2023-03-16T11:13:34;4.35;;;2.00;;
23001;SDS011;11667;51.706;4.856;2023-03-16T11:19:09;5.17;;;1.92;;
23001;SDS011;11667;51.706;4.856;2023-03-16T11:24:37;2.98;;;1.72;;
23001;SDS011;11667;51.706;4.856;2023-03-16T11:32:53;4.37;;;1.85;;
23001;SDS011;11667;51.706;4.856;2023-03-16T11:35:27;5.72;;;2.02;;
23001;SDS011;11667;51.706;4.856;2023-03-16T11:38:04;6.60;;;1.60;;
23001;SDS011;11667;51.706;4.856;2023-03-16T11:43:26;4.20;;;1.55;;
23001;SDS011;11667;51.706;4.856;2023-03-16T11:46:14;6.20;;;1.72;;
23001;SDS011;11667;51.706;4.856;2023-03-16T11:52:14;5.47;;;1.80;;
23001;SDS011;11667;51.706;4.856;2023-03-16T11:57:42;3.37;;;1.65;;
23001;SDS011;11667;51.706;4.856;2023-03-16T12:00:15;3.87;;;1.75;;
23001;SDS011;11667;51.706;4.856;2023-03-16T12:06:01;4.22;;;1.50;;
23001;SDS011;11667;51.706;4.856;2023-03-16T12:09:01;4.70;;;1.67;;
23001;SDS011;11667;51.706;4.856;2023-03-16T12:17:03;5.42;;;1.57;;
23001;SDS011;11667;51.706;4.856;2023-03-16T12:19:54;3.75;;;1.42;;
23001;SDS011;11667;51.706;4.856;2023-03-16T12:22:38;2.83;;;1.30;;
23001;SDS011;11667;51.706;4.856;2023-03-16T12:25:17;3.65;;;1.40;;
23001;SDS011;11667;51.706;4.856;2023-03-16T12:27:49;2.33;;;1.40;;
23001;SDS011;11667;51.706;4.856;2023-03-16T12:30:26;4.35;;;1.50;;
23001;SDS011;11667;51.706;4.856;2023-03-16T12:33:03;4.28;;;1.37;;
23001;SDS011;11667;51.706;4.856;2023-03-16T12:40:58;4.20;;;1.62;;
23001;SDS011;11667;51.706;4.856;2023-03-16T12:46:26;3.75;;;1.30;;
23001;SDS011;11667;51.706;4.856;2023-03-16T12:49:08;2.62;;;1.50;;
23001;SDS011;11667;51.706;4.856;2023-03-16T12:51:38;4.37;;;1.45;;
23001;SDS011;11667;51.706;4.856;2023-03-16T12:56:47;2.22;;;1.30;;
23001;SDS011;11667;51.706;4.856;2023-03-16T12:59:19;5.12;;;1.47;;
23001;SDS011;11667;51.706;4.856;2023-03-16T13:01:50;3.70;;;1.50;;
23001;SDS011;11667;51.706;4.856;2023-03-16T13:07:03;5.05;;;1.52;;
23001;SDS011;11667;51.706;4.856;2023-03-16T13:09:51;2.92;;;1.50;;
23001;SDS011;11667;51.706;4.856;2023-03-16T13:12:27;4.33;;;1.62;;
23001;SDS011;11667;51.706;4.856;2023-03-16T13:15:00;4.33;;;1.57;;
23001;SDS011;11667;51.706;4.856;2023-03-16T13:17:31;4.55;;;1.50;;
23001;SDS011;11667;51.706;4.856;2023-03-16T13:23:07;4.30;;;1.45;;
23001;SDS011;11667;51.706;4.856;2023-03-16T13:25:57;1.98;;;1.30;;
23001;SDS011;11667;51.706;4.856;2023-03-16T13:28:31;4.42;;;1.50;;
23001;SDS011;11667;51.706;4.856;2023-03-16T13:33:32;3.65;;;1.50;;
23001;SDS011;11667;51.706;4.856;2023-03-16T13:36:06;5.00;;;1.40;;
23001;SDS011;11667;51.706;4.856;2023-03-16T13:38:38;3.65;;;1.30;;
23001;SDS011;11667;51.706;4.856;2023-03-16T13:41:08;3.33;;;1.47;;
23001;SDS011;11667;51.706;4.856;2023-03-16T13:43:40;4.90;;;1.52;;
23001;SDS011;11667;51.706;4.856;2023-03-16T13:46:17;5.87;;;1.60;;
23001;SDS011;11667;51.706;4.856;2023-03-16T13:48:49;2.83;;;1.82;;
23001;SDS011;11667;51.706;4.856;2023-03-16T13:51:20;2.65;;;1.57;;
23001;SDS011;11667;51.706;4.856;2023-03-16T13:53:50;3.10;;;1.12;;
23001;SDS011;11667;51.706;4.856;2023-03-16T13:56:21;3.35;;;1.30;;
23001;SDS011;11667;51.706;4.856;2023-03-16T14:01:24;5.25;;;1.20;;
23001;SDS011;11667;51.706;4.856;2023-03-16T14:04:00;4.87;;;1.30;;
23001;SDS011;11667;51.706;4.856;2023-03-16T14:06:34;2.90;;;1.30;;
23001;SDS011;11667;51.706;4.856;2023-03-16T14:09:05;2.67;;;1.50;;
23001;SDS011;11667;51.706;4.856;2023-03-16T14:11:36;2.55;;;1.40;;
23001;SDS011;11667;51.706;4.856;2023-03-16T14:14:15;2.87;;;1.20;;
23001;SDS011;11667;51.706;4.856;2023-03-16T14:16:43;3.92;;;1.32;;
23001;SDS011;11667;51.706;4.856;2023-03-16T14:19:15;2.65;;;1.20;;
23001;SDS011;11667;51.706;4.856;2023-03-16T14:21:45;2.52;;;1.27;;
23001;SDS011;11667;51.706;4.856;2023-03-16T14:24:18;2.15;;;1.10;;
23001;SDS011;11667;51.706;4.856;2023-03-16T14:29:17;5.65;;;1.40;;
23001;SDS011;11667;51.706;4.856;2023-03-16T14:31:58;5.42;;;1.40;;
23001;SDS011;11667;51.706;4.856;2023-03-16T14:34:34;4.33;;;1.30;;
23001;SDS011;11667;51.706;4.856;2023-03-16T14:37:07;3.90;;;1.40;;
23001;SDS011;11667;51.706;4.856;2023-03-16T14:39:38;2.50;;;1.50;;
23001;SDS011;11667;51.706;4.856;2023-03-16T14:42:20;6.00;;;1.22;;
23001;SDS011;11667;51.706;4.856;2023-03-16T14:45:04;2.95;;;1.10;;
23001;SDS011;11667;51.706;4.856;2023-03-16T14:47:36;4.72;;;1.30;;
23001;SDS011;11667;51.706;4.856;2023-03-16T14:50:11;3.17;;;1.15;;
23001;SDS011;11667;51.706;4.856;2023-03-16T14:52:45;3.72;;;1.65;;
23001;SDS011;11667;51.706;4.856;2023-03-16T14:55:15;6.67;;;1.30;;
23001;SDS011;11667;51.706;4.856;2023-03-16T14:57:47;4.27;;;1.33;;
23001;SDS011;11667;51.706;4.856;2023-03-16T15:00:19;3.33;;;1.20;;
23001;SDS011;11667;51.706;4.856;2023-03-16T15:02:59;3.63;;;1.30;;
23001;SDS011;11667;51.706;4.856;2023-03-16T15:05:33;3.22;;;1.30;;
23001;SDS011;11667;51.706;4.856;2023-03-16T15:08:10;2.40;;;1.20;;
23001;SDS011;11667;51.706;4.856;2023-03-16T15:10:37;4.50;;;1.20;;
23001;SDS011;11667;51.706;4.856;2023-03-16T15:13:11;3.33;;;1.10;;
23001;SDS011;11667;51.706;4.856;2023-03-16T15:15:43;3.98;;;1.40;;
23001;SDS011;11667;51.706;4.856;2023-03-16T15:18:14;2.83;;;1.20;;
23001;SDS011;11667;51.706;4.856;2023-03-16T15:20:43;2.70;;;1.10;;
23001;SDS011;11667;51.706;4.856;2023-03-16T15:23:15;3.05;;;1.15;;
23001;SDS011;11667;51.706;4.856;2023-03-16T15:25:46;2.22;;;1.10;;
23001;SDS011;11667;51.706;4.856;2023-03-16T15:30:51;2.55;;;1.22;;
23001;SDS011;11667;51.706;4.856;2023-03-16T15:33:20;3.52;;;1.30;;
23001;SDS011;11667;51.706;4.856;2023-03-16T15:35:51;4.45;;;1.40;;
23001;SDS011;11667;51.706;4.856;2023-03-16T15:38:32;5.58;;;1.67;;
23001;SDS011;11667;51.706;4.856;2023-03-16T15:41:07;1.72;;;1.15;;
23001;SDS011;11667;51.706;4.856;2023-03-16T15:43:40;3.35;;;0.98;;
23001;SDS011;11667;51.706;4.856;2023-03-16T15:46:12;3.22;;;1.30;;
23001;SDS011;11667;51.706;4.856;2023-03-16T15:48:41;3.77;;;1.25;;
23001;SDS011;11667;51.706;4.856;2023-03-16T15:51:15;3.58;;;1.12;;
23001;SDS011;11667;51.706;4.856;2023-03-16T15:53:53;4.50;;;1.20;;
23001;SDS011;11667;51.706;4.856;2023-03-16T15:56:27;2.37;;;1.15;;
23001;SDS011;11667;51.706;4.856;2023-03-16T15:59:01;5.47;;;1.37;;
23001;SDS011;11667;51.706;4.856;2023-03-16T16:01:37;3.25;;;1.65;;
23001;SDS011;11667;51.706;4.856;2023-03-16T16:04:13;3.30;;;1.32;;
23001;SDS011;11667;51.706;4.856;2023-03-16T16:06:48;2.42;;;1.40;;
23001;SDS011;11667;51.706;4.856;2023-03-16T16:09:20;6.50;;;1.43;;
23001;SDS011;11667;51.706;4.856;2023-03-16T16:11:50;3.80;;;1.42;;
23001;SDS011;11667;51.706;4.856;2023-03-16T16:14:21;2.52;;;1.10;;
23001;SDS011;11667;51.706;4.856;2023-03-16T16:16:51;3.92;;;1.02;;
23001;SDS011;11667;51.706;4.856;2023-03-16T16:19:21;5.50;;;1.30;;
23001;SDS011;11667;51.706;4.856;2023-03-16T16:21:52;2.37;;;1.50;;
23001;SDS011;11667;51.706;4.856;2023-03-16T16:24:21;2.30;;;1.25;;
23001;SDS011;11667;51.706;4.856;2023-03-16T16:26:51;2.72;;;1.30;;
23001;SDS011;11667;51.706;4.856;2023-03-16T16:29:23;5.00;;;1.67;;
23001;SDS011;11667;51.706;4.856;2023-03-16T16:31:56;2.60;;;1.30;;
23001;SDS011;11667;51.706;4.856;2023-03-16T16:34:26;3.60;;;1.37;;